createdAt,value
2019-01-11T00:00:31.379Z,998.26
2019-01-11T00:01:31.291Z,998.31
2019-01-11T00:02:31.204Z,998.31
2019-01-11T00:03:31.118Z,998.32
2019-01-11T00:04:31.032Z,998.33
2019-01-11T00:05:30.948Z,998.33
2019-01-11T00:06:30.860Z,998.32
2019-01-11T00:07:30.873Z,998.34
2019-01-11T00:08:30.686Z,998.28
2019-01-11T00:09:30.600Z,998.31
2019-01-11T00:10:30.515Z,998.28
2019-01-11T00:11:30.429Z,998.28
2019-01-11T00:12:30.344Z,998.27
2019-01-11T00:13:30.255Z,998.28
2019-01-11T00:14:30.167Z,998.27
2019-01-11T00:15:30.082Z,998.30
2019-01-11T00:16:29.994Z,998.30
2019-01-11T00:17:29.909Z,998.29
2019-01-11T00:18:29.922Z,998.30
2019-01-11T00:19:29.735Z,998.30
2019-01-11T00:20:29.649Z,998.29
2019-01-11T00:21:29.562Z,998.31
2019-01-11T00:22:29.476Z,998.28
2019-01-11T00:23:29.390Z,998.27
2019-01-11T00:24:29.305Z,998.26
2019-01-11T00:25:29.219Z,998.26
2019-01-11T00:26:29.130Z,998.28
2019-01-11T00:27:29.045Z,998.28
2019-01-11T00:28:28.958Z,998.25
2019-01-11T00:29:28.871Z,998.25
2019-01-11T00:30:28.786Z,998.24
2019-01-11T00:31:28.698Z,998.26
2019-01-11T00:32:28.611Z,998.20
2019-01-11T00:33:28.527Z,998.23
2019-01-11T00:34:28.489Z,998.20
2019-01-11T00:35:28.353Z,998.22
2019-01-11T00:36:28.266Z,998.22
2019-01-11T00:37:28.178Z,998.23
2019-01-11T00:38:28.092Z,998.27
2019-01-11T00:39:28.106Z,998.28
2019-01-11T00:40:27.920Z,998.25
2019-01-11T00:41:27.833Z,998.26
2019-01-11T00:42:27.746Z,998.24
2019-01-11T00:43:27.661Z,998.20
2019-01-11T00:44:27.573Z,998.21
2019-01-11T00:45:27.487Z,998.19
2019-01-11T00:46:27.400Z,998.11
2019-01-11T00:47:27.316Z,998.12
2019-01-11T00:48:27.225Z,998.09
2019-01-11T00:49:27.141Z,998.07
2019-01-11T00:50:27.052Z,998.08
2019-01-11T00:51:26.966Z,998.08
2019-01-11T00:52:26.880Z,998.07
2019-01-11T00:53:26.795Z,998.07
2019-01-11T00:54:26.707Z,998.10
2019-01-11T00:55:26.621Z,998.11
2019-01-11T00:56:26.534Z,998.16
2019-01-11T00:57:26.449Z,998.15
2019-01-11T00:58:26.362Z,998.16
2019-01-11T00:59:26.274Z,998.14
2019-01-11T01:00:26.192Z,998.14
2019-01-11T01:01:26.101Z,998.14
2019-01-11T01:02:26.014Z,998.12
2019-01-11T01:03:25.929Z,998.17
2019-01-11T01:04:25.841Z,998.19
2019-01-11T01:05:25.755Z,998.16
2019-01-11T01:06:25.671Z,998.14
2019-01-11T01:07:25.589Z,998.15
2019-01-11T01:08:30.489Z,998.12
2019-01-11T01:09:25.408Z,998.14
2019-01-11T01:10:25.422Z,998.09
2019-01-11T01:11:25.236Z,998.12
2019-01-11T01:12:25.149Z,998.09
2019-01-11T01:13:25.062Z,998.11
2019-01-11T01:14:24.974Z,998.11
2019-01-11T01:15:24.888Z,998.14
2019-01-11T01:16:24.804Z,998.16
2019-01-11T01:17:24.715Z,998.17
2019-01-11T01:18:24.629Z,998.17
2019-01-11T01:19:24.543Z,998.16
2019-01-11T01:20:24.460Z,998.15
2019-01-11T01:21:24.370Z,998.18
2019-01-11T01:22:24.285Z,998.19
2019-01-11T01:23:24.197Z,998.19
2019-01-11T01:24:24.112Z,998.20
2019-01-11T01:25:24.026Z,998.21
2019-01-11T01:26:23.938Z,998.24
2019-01-11T01:27:23.851Z,998.22
2019-01-11T01:28:23.765Z,998.21
2019-01-11T01:29:23.679Z,998.23
2019-01-11T01:30:23.592Z,998.21
2019-01-11T01:31:23.556Z,998.25
2019-01-11T01:32:23.421Z,998.22
2019-01-11T01:33:23.333Z,998.23
2019-01-11T01:34:23.246Z,998.24
2019-01-11T01:35:23.160Z,998.27
2019-01-11T01:36:23.074Z,998.30
2019-01-11T01:37:22.988Z,998.31
2019-01-11T01:38:22.900Z,998.33
2019-01-11T01:39:22.815Z,998.34
2019-01-11T01:40:22.729Z,998.35
2019-01-11T01:41:22.741Z,998.29
2019-01-11T01:42:22.555Z,998.31
2019-01-11T01:43:22.470Z,998.30
2019-01-11T01:44:22.382Z,998.32
2019-01-11T01:45:22.296Z,998.32
2019-01-11T01:46:22.210Z,998.32
2019-01-11T01:47:22.124Z,998.26
2019-01-11T01:48:22.037Z,998.25
2019-01-11T01:49:26.535Z,998.22
2019-01-11T01:50:21.865Z,998.18
2019-01-11T01:51:21.779Z,998.15
2019-01-11T01:52:21.693Z,998.14
2019-01-11T01:53:21.605Z,998.18
2019-01-11T01:54:21.520Z,998.15
2019-01-11T01:55:21.432Z,998.17
2019-01-11T01:56:21.347Z,998.22
2019-01-11T01:57:21.262Z,998.20
2019-01-11T01:58:21.173Z,998.15
2019-01-11T01:59:21.087Z,998.11
2019-01-11T02:00:21.001Z,998.12
2019-01-11T02:01:20.916Z,998.13
2019-01-11T02:02:20.829Z,998.12
2019-01-11T02:03:20.742Z,998.12
2019-01-11T02:04:20.657Z,998.09
2019-01-11T02:05:20.570Z,998.10
2019-01-11T02:06:20.485Z,998.14
2019-01-11T02:07:20.398Z,998.17
2019-01-11T02:08:20.312Z,998.17
2019-01-11T02:09:20.225Z,998.20
2019-01-11T02:10:20.142Z,998.18
2019-01-11T02:11:20.053Z,998.17
2019-01-11T02:12:19.969Z,998.13
2019-01-11T02:13:19.982Z,998.15
2019-01-11T02:14:19.795Z,998.13
2019-01-11T02:15:19.709Z,998.10
2019-01-11T02:16:19.623Z,998.09
2019-01-11T02:17:19.538Z,998.10
2019-01-11T02:18:19.450Z,998.09
2019-01-11T02:19:19.367Z,998.07
2019-01-11T02:20:19.280Z,998.02
2019-01-11T02:21:19.193Z,998.08
2019-01-11T02:22:19.106Z,998.06
2019-01-11T02:23:19.121Z,998.04
2019-01-11T02:24:18.936Z,998.00
2019-01-11T02:25:18.849Z,998.04
2019-01-11T02:26:18.763Z,998.03
2019-01-11T02:27:18.677Z,998.06
2019-01-11T02:28:18.592Z,998.05
2019-01-11T02:29:18.506Z,998.11
2019-01-11T02:30:18.423Z,998.07
2019-01-11T02:31:18.410Z,998.06
2019-01-11T02:32:18.247Z,998.02
2019-01-11T02:33:24.910Z,998.01
2019-01-11T02:34:18.076Z,997.99
2019-01-11T02:35:17.991Z,998.03
2019-01-11T02:36:17.903Z,998.02
2019-01-11T02:37:17.818Z,997.97
2019-01-11T02:38:17.731Z,997.96
2019-01-11T02:39:17.645Z,997.92
2019-01-11T02:40:17.561Z,997.94
2019-01-11T02:41:17.474Z,997.91
2019-01-11T02:42:17.386Z,997.92
2019-01-11T02:43:17.302Z,997.90
2019-01-11T02:44:17.217Z,997.93
2019-01-11T02:45:17.130Z,997.92
2019-01-11T02:46:17.045Z,997.91
2019-01-11T02:47:16.958Z,997.90
2019-01-11T02:48:16.873Z,997.86
2019-01-11T02:49:16.786Z,997.89
2019-01-11T02:50:16.701Z,997.86
2019-01-11T02:51:16.614Z,997.86
2019-01-11T02:52:16.528Z,997.87
2019-01-11T02:53:16.449Z,997.84
2019-01-11T02:54:16.355Z,997.85
2019-01-11T02:55:16.272Z,997.84
2019-01-11T02:56:16.185Z,997.84
2019-01-11T02:57:16.098Z,997.79
2019-01-11T02:58:16.012Z,997.80
2019-01-11T02:59:15.926Z,997.83
2019-01-11T03:00:15.841Z,997.85
2019-01-11T03:01:15.760Z,997.82
2019-01-11T03:02:15.669Z,997.82
2019-01-11T03:03:15.583Z,997.80
2019-01-11T03:04:15.497Z,997.81
2019-01-11T03:05:15.414Z,997.86
2019-01-11T03:06:15.326Z,997.83
2019-01-11T03:07:15.241Z,997.84
2019-01-11T03:08:15.156Z,997.84
2019-01-11T03:09:15.071Z,997.87
2019-01-11T03:10:14.984Z,997.88
2019-01-11T03:11:14.898Z,997.84
2019-01-11T03:12:14.812Z,997.83
2019-01-11T03:13:14.726Z,997.83
2019-01-11T03:14:14.640Z,997.82
2019-01-11T03:15:14.570Z,997.83
2019-01-11T03:16:14.469Z,997.84
2019-01-11T03:17:14.383Z,997.84
2019-01-11T03:18:14.298Z,997.81
2019-01-11T03:19:14.212Z,997.83
2019-01-11T03:20:14.127Z,997.78
2019-01-11T03:21:14.090Z,997.80
2019-01-11T03:22:13.956Z,997.81
2019-01-11T03:23:13.869Z,997.81
2019-01-11T03:24:13.784Z,997.83
2019-01-11T03:25:13.699Z,997.82
2019-01-11T03:26:13.650Z,997.82
2019-01-11T03:27:13.528Z,997.82
2019-01-11T03:28:13.443Z,997.86
2019-01-11T03:29:13.355Z,997.84
2019-01-11T03:30:13.277Z,997.81
2019-01-11T03:31:13.187Z,997.78
2019-01-11T03:32:13.183Z,997.84
2019-01-11T03:33:13.015Z,997.88
2019-01-11T03:34:12.928Z,997.90
2019-01-11T03:35:12.842Z,997.88
2019-01-11T03:36:12.759Z,997.87
2019-01-11T03:37:12.772Z,997.87
2019-01-11T03:38:12.586Z,997.93
2019-01-11T03:39:12.501Z,997.86
2019-01-11T03:40:12.417Z,997.85
2019-01-11T03:41:12.330Z,997.82
2019-01-11T03:42:12.295Z,997.80
2019-01-11T03:43:12.162Z,997.78
2019-01-11T03:44:12.074Z,997.79
2019-01-11T03:45:11.988Z,997.79
2019-01-11T03:46:11.901Z,997.77
2019-01-11T03:47:11.817Z,997.81
2019-01-11T03:48:11.732Z,997.80
2019-01-11T03:49:11.647Z,997.77
2019-01-11T03:50:11.559Z,997.79
2019-01-11T03:51:11.474Z,997.82
2019-01-11T03:52:11.391Z,997.78
2019-01-11T03:53:11.306Z,997.78
2019-01-11T03:54:11.217Z,997.82
2019-01-11T03:55:11.131Z,997.79
2019-01-11T03:56:11.054Z,997.77
2019-01-11T03:57:10.961Z,997.78
2019-01-11T03:58:10.876Z,997.76
2019-01-11T03:59:10.789Z,997.77
2019-01-11T04:00:10.704Z,997.79
2019-01-11T04:01:10.619Z,997.76
2019-01-11T04:02:10.534Z,997.77
2019-01-11T04:03:10.497Z,997.74
2019-01-11T04:04:10.362Z,997.70
2019-01-11T04:05:10.277Z,997.70
2019-01-11T04:06:10.191Z,997.67
2019-01-11T04:07:10.106Z,997.73
2019-01-11T04:08:10.021Z,997.69
2019-01-11T04:09:09.935Z,997.71
2019-01-11T04:10:09.851Z,997.69
2019-01-11T04:11:09.764Z,997.73
2019-01-11T04:12:09.680Z,997.76
2019-01-11T04:13:09.597Z,997.77
2019-01-11T04:14:09.509Z,997.75
2019-01-11T04:15:09.423Z,997.78
2019-01-11T04:16:09.338Z,997.74
2019-01-11T04:17:09.253Z,997.76
2019-01-11T04:18:09.168Z,997.79
2019-01-11T04:19:09.081Z,997.82
2019-01-11T04:20:08.997Z,997.85
2019-01-11T04:21:08.912Z,997.86
2019-01-11T04:22:08.825Z,997.91
2019-01-11T04:23:08.740Z,997.95
2019-01-11T04:24:08.657Z,997.90
2019-01-11T04:25:08.570Z,997.88
2019-01-11T04:26:08.484Z,997.89
2019-01-11T04:27:08.397Z,997.88
2019-01-11T04:28:08.313Z,997.90
2019-01-11T04:29:08.228Z,997.87
2019-01-11T04:30:08.141Z,997.89
2019-01-11T04:31:08.055Z,997.88
2019-01-11T04:32:07.971Z,997.90
2019-01-11T04:33:07.884Z,997.88
2019-01-11T04:34:07.898Z,997.90
2019-01-11T04:35:07.714Z,997.88
2019-01-11T04:36:07.626Z,997.87
2019-01-11T04:37:07.542Z,997.85
2019-01-11T04:38:07.457Z,997.86
2019-01-11T04:39:07.471Z,997.84
2019-01-11T04:40:07.286Z,997.82
2019-01-11T04:41:07.199Z,997.88
2019-01-11T04:42:07.116Z,997.86
2019-01-11T04:43:07.027Z,997.85
2019-01-11T04:44:06.947Z,997.84
2019-01-11T04:45:06.864Z,997.82
2019-01-11T04:46:06.770Z,997.80
2019-01-11T04:47:06.686Z,997.85
2019-01-11T04:48:06.600Z,997.82
2019-01-11T04:49:06.514Z,997.83
2019-01-11T04:50:09.483Z,997.82
2019-01-11T04:51:06.341Z,997.79
2019-01-11T04:52:06.257Z,997.83
2019-01-11T04:53:06.172Z,997.82
2019-01-11T04:54:06.089Z,997.84
2019-01-11T04:55:06.000Z,997.83
2019-01-11T04:56:05.916Z,997.85
2019-01-11T04:57:05.829Z,997.82
2019-01-11T04:58:06.714Z,997.78
2019-01-11T04:59:05.669Z,997.77
2019-01-11T05:00:05.573Z,997.80
2019-01-11T05:01:05.486Z,997.85
2019-01-11T05:02:05.400Z,997.80
2019-01-11T05:03:05.316Z,997.81
2019-01-11T05:04:05.238Z,997.79
2019-01-11T05:05:05.145Z,997.81
2019-01-11T05:06:05.061Z,997.78
2019-01-11T05:07:04.971Z,997.73
2019-01-11T05:08:04.887Z,997.73
2019-01-11T05:09:04.801Z,997.75
2019-01-11T05:10:04.715Z,997.73
2019-01-11T05:11:04.632Z,997.71
2019-01-11T05:12:04.544Z,997.72
2019-01-11T05:13:04.459Z,997.67
2019-01-11T05:14:04.373Z,997.71
2019-01-11T05:15:04.286Z,997.70
2019-01-11T05:16:04.252Z,997.69
2019-01-11T05:17:04.123Z,997.68
2019-01-11T05:18:04.030Z,997.71
2019-01-11T05:19:03.945Z,997.73
2019-01-11T05:20:03.859Z,997.71
2019-01-11T05:21:03.773Z,997.72
2019-01-11T05:22:03.689Z,997.71
2019-01-11T05:23:03.602Z,997.73
2019-01-11T05:24:03.516Z,997.73
2019-01-11T05:25:03.439Z,997.71
2019-01-11T05:26:03.348Z,997.71
2019-01-11T05:27:03.262Z,997.70
2019-01-11T05:28:03.174Z,997.67
2019-01-11T05:29:03.089Z,997.66
2019-01-11T05:30:03.001Z,997.67
2019-01-11T05:31:02.971Z,997.65
2019-01-11T05:32:02.832Z,997.67
2019-01-11T05:33:02.746Z,997.65
2019-01-11T05:34:02.660Z,997.66
2019-01-11T05:35:02.574Z,997.63
2019-01-11T05:36:02.488Z,997.66
2019-01-11T05:37:02.404Z,997.63
2019-01-11T05:38:02.317Z,997.63
2019-01-11T05:39:02.230Z,997.66
2019-01-11T05:40:02.145Z,997.63
2019-01-11T05:41:02.062Z,997.66
2019-01-11T05:42:02.075Z,997.62
2019-01-11T05:43:01.890Z,997.61
2019-01-11T05:44:01.806Z,997.62
2019-01-11T05:45:01.718Z,997.59
2019-01-11T05:46:01.633Z,997.61
2019-01-11T05:47:01.547Z,997.54
2019-01-11T05:48:01.464Z,997.58
2019-01-11T05:49:01.375Z,997.55
2019-01-11T05:50:01.290Z,997.57
2019-01-11T05:51:01.206Z,997.53
2019-01-11T05:52:01.124Z,997.57
2019-01-11T05:53:01.038Z,997.56
2019-01-11T05:54:00.948Z,997.56
2019-01-11T05:55:00.881Z,997.54
2019-01-11T05:56:00.777Z,997.49
2019-01-11T05:57:00.692Z,997.51
2019-01-11T05:58:00.605Z,997.52
2019-01-11T05:59:00.522Z,997.51
2019-01-11T06:00:00.435Z,997.51
2019-01-11T06:01:00.351Z,997.45
2019-01-11T06:02:00.265Z,997.51
2019-01-11T06:03:00.178Z,997.51
2019-01-11T06:04:00.116Z,997.47
2019-01-11T06:05:00.007Z,997.53
2019-01-11T06:05:59.922Z,997.51
2019-01-11T06:06:59.839Z,997.50
2019-01-11T06:07:59.751Z,997.53
2019-01-11T06:08:59.665Z,997.49
2019-01-11T06:09:59.579Z,997.49
2019-01-11T06:10:59.493Z,997.49
2019-01-11T06:11:59.409Z,997.50
2019-01-11T06:12:59.332Z,997.50
2019-01-11T06:13:59.237Z,997.47
2019-01-11T06:14:59.151Z,997.48
2019-01-11T06:15:59.069Z,997.46
2019-01-11T06:16:58.980Z,997.50
2019-01-11T06:17:58.896Z,997.46
2019-01-11T06:18:58.810Z,997.46
2019-01-11T06:19:58.726Z,997.46
2019-01-11T06:20:58.639Z,997.44
2019-01-11T06:21:58.553Z,997.46
2019-01-11T06:22:58.469Z,997.46
2019-01-11T06:23:58.382Z,997.44
2019-01-11T06:24:58.296Z,997.41
2019-01-11T06:25:58.210Z,997.45
2019-01-11T06:26:58.125Z,997.40
2019-01-11T06:27:58.044Z,997.41
2019-01-11T06:28:57.954Z,997.42
2019-01-11T06:29:57.869Z,997.45
2019-01-11T06:30:57.784Z,997.41
2019-01-11T06:31:57.697Z,997.44
2019-01-11T06:32:57.611Z,997.47
2019-01-11T06:33:57.525Z,997.45
2019-01-11T06:34:57.440Z,997.41
2019-01-11T06:35:57.353Z,997.42
2019-01-11T06:36:57.269Z,997.45
2019-01-11T06:37:57.181Z,997.44
2019-01-11T06:38:57.095Z,997.47
2019-01-11T06:39:57.010Z,997.46
2019-01-11T06:40:56.924Z,997.45
2019-01-11T06:41:56.839Z,997.46
2019-01-11T06:42:56.756Z,997.42
2019-01-11T06:43:56.667Z,997.47
2019-01-11T06:44:56.580Z,997.42
2019-01-11T06:45:56.493Z,997.40
2019-01-11T06:46:56.407Z,997.45
2019-01-11T06:47:56.322Z,997.41
2019-01-11T06:48:56.236Z,997.41
2019-01-11T06:49:56.248Z,997.42
2019-01-11T06:50:56.102Z,997.41
2019-01-11T06:51:55.978Z,997.41
2019-01-11T06:52:55.892Z,997.39
2019-01-11T06:53:55.810Z,997.38
2019-01-11T06:54:55.719Z,997.41
2019-01-11T06:55:55.635Z,997.37
2019-01-11T06:56:55.550Z,997.37
2019-01-11T06:57:55.461Z,997.37
2019-01-11T06:58:55.375Z,997.42
2019-01-11T06:59:55.291Z,997.40
2019-01-11T07:00:55.204Z,997.41
2019-01-11T07:01:55.120Z,997.34
2019-01-11T07:02:55.033Z,997.40
2019-01-11T07:03:54.946Z,997.39
2019-01-11T07:04:54.861Z,997.38
2019-01-11T07:05:54.774Z,997.33
2019-01-11T07:06:54.687Z,997.36
2019-01-11T07:07:54.602Z,997.40
2019-01-11T07:08:54.516Z,997.33
2019-01-11T07:09:54.430Z,997.33
2019-01-11T07:10:54.346Z,997.31
2019-01-11T07:11:54.258Z,997.28
2019-01-11T07:12:54.175Z,997.24
2019-01-11T07:13:54.087Z,997.25
2019-01-11T07:14:54.006Z,997.22
2019-01-11T07:15:53.916Z,997.24
2019-01-11T07:16:53.829Z,997.26
2019-01-11T07:17:53.743Z,997.20
2019-01-11T07:18:53.656Z,997.21
2019-01-11T07:19:53.572Z,997.20
2019-01-11T07:20:53.485Z,997.22
2019-01-11T07:21:53.399Z,997.21
2019-01-11T07:22:53.313Z,997.27
2019-01-11T07:23:53.227Z,997.23
2019-01-11T07:24:53.141Z,997.24
2019-01-11T07:25:53.055Z,997.20
2019-01-11T07:26:52.968Z,997.24
2019-01-11T07:27:52.886Z,997.24
2019-01-11T07:28:52.798Z,997.24
2019-01-11T07:29:52.710Z,997.25
2019-01-11T07:30:52.624Z,997.23
2019-01-11T07:31:52.538Z,997.22
2019-01-11T07:32:52.453Z,997.27
2019-01-11T07:33:52.367Z,997.29
2019-01-11T07:34:52.281Z,997.27
2019-01-11T07:35:52.197Z,997.24
2019-01-11T07:36:52.110Z,997.26
2019-01-11T07:37:52.023Z,997.28
2019-01-11T07:38:51.937Z,997.30
2019-01-11T07:39:51.854Z,997.27
2019-01-11T07:40:51.765Z,997.28
2019-01-11T07:41:51.681Z,997.31
2019-01-11T07:42:51.594Z,997.29
2019-01-11T07:43:51.509Z,997.31
2019-01-11T07:44:51.425Z,997.29
2019-01-11T07:45:51.336Z,997.23
2019-01-11T07:46:51.251Z,997.28
2019-01-11T07:47:51.166Z,997.29
2019-01-11T07:48:51.082Z,997.29
2019-01-11T07:49:50.996Z,997.26
2019-01-11T07:50:50.908Z,997.24
2019-01-11T07:51:50.823Z,997.29
2019-01-11T07:52:50.737Z,997.27
2019-01-11T07:53:50.649Z,997.24
2019-01-11T07:54:50.564Z,997.25
2019-01-11T07:55:50.479Z,997.27
2019-01-11T07:56:50.393Z,997.24
2019-01-11T07:57:50.306Z,997.25
2019-01-11T07:58:50.221Z,997.27
2019-01-11T07:59:50.134Z,997.22
2019-01-11T08:00:50.049Z,997.28
2019-01-11T08:01:49.964Z,997.29
2019-01-11T08:02:49.882Z,997.25
2019-01-11T08:03:49.791Z,997.29
2019-01-11T08:04:49.706Z,997.28
2019-01-11T08:05:49.619Z,997.29
2019-01-11T08:06:49.534Z,997.29
2019-01-11T08:07:49.449Z,997.32
2019-01-11T08:08:49.363Z,997.33
2019-01-11T08:09:49.274Z,997.27
2019-01-11T08:10:49.194Z,997.31
2019-01-11T08:11:49.104Z,997.30
2019-01-11T08:12:49.018Z,997.30
2019-01-11T08:13:48.933Z,997.32
2019-01-11T08:14:48.846Z,997.28
2019-01-11T08:15:48.762Z,997.30
2019-01-11T08:16:48.675Z,997.24
2019-01-11T08:17:48.589Z,997.25
2019-01-11T08:18:48.504Z,997.26
2019-01-11T08:19:48.420Z,997.27
2019-01-11T08:20:48.333Z,997.24
2019-01-11T08:21:48.596Z,997.23
2019-01-11T08:22:48.160Z,997.23
2019-01-11T08:23:48.077Z,997.24
2019-01-11T08:24:47.990Z,997.23
2019-01-11T08:25:47.903Z,997.21
2019-01-11T08:26:47.817Z,997.16
2019-01-11T08:27:47.734Z,997.21
2019-01-11T08:28:47.651Z,997.16
2019-01-11T08:29:47.561Z,997.25
2019-01-11T08:30:47.475Z,997.20
2019-01-11T08:31:47.389Z,997.25
2019-01-11T08:32:47.305Z,997.25
2019-01-11T08:33:47.217Z,997.25
2019-01-11T08:34:47.132Z,997.27
2019-01-11T08:35:47.048Z,997.29
2019-01-11T08:36:46.961Z,997.26
2019-01-11T08:37:46.872Z,997.29
2019-01-11T08:38:46.790Z,997.22
2019-01-11T08:39:46.704Z,997.24
2019-01-11T08:40:46.615Z,997.22
2019-01-11T08:41:46.529Z,997.26
2019-01-11T08:42:46.544Z,997.26
2019-01-11T08:43:46.358Z,997.20
2019-01-11T08:44:46.273Z,997.15
2019-01-11T08:45:46.186Z,997.15
2019-01-11T08:46:46.102Z,997.10
2019-01-11T08:47:46.016Z,997.11
2019-01-11T08:48:45.931Z,997.16
2019-01-11T08:49:45.843Z,997.09
2019-01-11T08:50:45.757Z,997.12
2019-01-11T08:51:45.673Z,997.07
2019-01-11T08:52:45.586Z,997.08
2019-01-11T08:53:45.502Z,997.13
2019-01-11T08:54:45.414Z,997.05
2019-01-11T08:55:45.329Z,997.09
2019-01-11T08:56:45.243Z,997.07
2019-01-11T08:57:45.157Z,997.14
2019-01-11T08:58:45.075Z,997.02
2019-01-11T08:59:44.986Z,997.04
2019-01-11T09:00:44.900Z,997.01
2019-01-11T09:01:44.812Z,997.00
2019-01-11T09:02:44.729Z,996.96
2019-01-11T09:03:44.642Z,997.01
2019-01-11T09:04:44.557Z,997.03
2019-01-11T09:05:44.470Z,996.90
2019-01-11T09:06:44.385Z,996.93
2019-01-11T09:07:44.298Z,996.91
2019-01-11T09:08:44.212Z,997.00
2019-01-11T09:09:44.126Z,996.99
2019-01-11T09:10:44.041Z,997.04
2019-01-11T09:11:43.956Z,997.02
2019-01-11T09:12:43.870Z,997.04
2019-01-11T09:13:43.783Z,997.01
2019-01-11T09:14:43.698Z,997.03
2019-01-11T09:15:43.630Z,997.02
2019-01-11T09:16:43.527Z,997.00
2019-01-11T09:17:43.441Z,997.02
2019-01-11T09:18:43.356Z,996.99
2019-01-11T09:19:43.319Z,996.97
2019-01-11T09:20:43.185Z,997.04
2019-01-11T09:21:43.106Z,997.04
2019-01-11T09:22:43.012Z,997.06
2019-01-11T09:23:42.927Z,997.09
2019-01-11T09:24:42.842Z,997.00
2019-01-11T09:25:42.757Z,997.10
2019-01-11T09:26:42.669Z,997.07
2019-01-11T09:27:42.584Z,997.11
2019-01-11T09:28:42.498Z,997.04
2019-01-11T09:29:42.412Z,997.14
2019-01-11T09:30:42.326Z,997.09
2019-01-11T09:31:42.241Z,997.07
2019-01-11T09:32:42.156Z,997.11
2019-01-11T09:33:42.069Z,997.14
2019-01-11T09:34:41.983Z,997.05
2019-01-11T09:35:41.896Z,997.09
2019-01-11T09:36:41.811Z,997.08
2019-01-11T09:37:42.427Z,997.00
2019-01-11T09:38:41.638Z,997.06
2019-01-11T09:39:41.553Z,997.05
2019-01-11T09:40:41.467Z,997.07
2019-01-11T09:41:41.382Z,997.08
2019-01-11T09:42:41.296Z,997.07
2019-01-11T09:43:41.210Z,996.99
2019-01-11T09:44:41.123Z,996.97
2019-01-11T09:45:41.036Z,996.98
2019-01-11T09:46:40.952Z,996.96
2019-01-11T09:47:40.867Z,996.97
2019-01-11T09:48:40.781Z,996.96
2019-01-11T09:49:40.694Z,996.97
2019-01-11T09:50:40.609Z,996.98
2019-01-11T09:51:40.522Z,996.98
2019-01-11T09:52:40.436Z,997.00
2019-01-11T09:53:40.350Z,996.93
2019-01-11T09:54:40.264Z,996.94
2019-01-11T09:55:40.177Z,996.94
2019-01-11T09:56:40.092Z,996.92
2019-01-11T09:57:40.004Z,996.95
2019-01-11T09:58:39.920Z,996.83
2019-01-11T09:59:39.833Z,996.92
2019-01-11T10:00:39.786Z,996.85
2019-01-11T10:01:39.660Z,996.83
2019-01-11T10:02:39.638Z,996.79
2019-01-11T10:03:39.488Z,996.76
2019-01-11T10:04:39.403Z,996.82
2019-01-11T10:05:39.317Z,996.80
2019-01-11T10:06:39.231Z,996.81
2019-01-11T10:07:39.144Z,996.78
2019-01-11T10:08:39.058Z,996.78
2019-01-11T10:09:38.972Z,996.81
2019-01-11T10:10:38.886Z,996.83
2019-01-11T10:11:38.800Z,996.77
2019-01-11T10:12:38.717Z,996.79
2019-01-11T10:13:38.628Z,996.85
2019-01-11T10:14:38.542Z,996.85
2019-01-11T10:15:38.458Z,996.79
2019-01-11T10:16:38.372Z,996.76
2019-01-11T10:17:38.292Z,996.78
2019-01-11T10:18:38.200Z,996.79
2019-01-11T10:19:38.116Z,996.79
2019-01-11T10:20:38.028Z,996.78
2019-01-11T10:21:37.943Z,996.77
2019-01-11T10:22:37.857Z,996.80
2019-01-11T10:23:37.772Z,996.77
2019-01-11T10:24:37.687Z,996.76
2019-01-11T10:25:37.604Z,996.76
2019-01-11T10:26:37.514Z,996.71
2019-01-11T10:27:37.431Z,996.74
2019-01-11T10:28:37.344Z,996.74
2019-01-11T10:29:37.257Z,996.71
2019-01-11T10:30:37.172Z,996.74
2019-01-11T10:31:37.088Z,996.78
2019-01-11T10:32:37.001Z,996.81
2019-01-11T10:33:36.914Z,996.73
2019-01-11T10:34:36.830Z,996.74
2019-01-11T10:35:36.748Z,996.72
2019-01-11T10:36:36.659Z,996.75
2019-01-11T10:37:36.575Z,996.72
2019-01-11T10:38:36.532Z,996.74
2019-01-11T10:39:36.403Z,996.66
2019-01-11T10:40:36.316Z,996.71
2019-01-11T10:41:36.230Z,996.63
2019-01-11T10:42:36.145Z,996.66
2019-01-11T10:43:36.059Z,996.70
2019-01-11T10:44:35.975Z,996.71
2019-01-11T10:45:35.888Z,996.70
2019-01-11T10:46:35.803Z,996.71
2019-01-11T10:47:35.717Z,996.80
2019-01-11T10:48:35.631Z,996.66
2019-01-11T10:49:35.545Z,996.67
2019-01-11T10:50:35.460Z,996.66
2019-01-11T10:51:35.375Z,996.67
2019-01-11T10:52:35.288Z,996.71
2019-01-11T10:53:35.204Z,996.70
2019-01-11T10:54:35.117Z,996.68
2019-01-11T10:55:35.032Z,996.68
2019-01-11T10:56:34.946Z,996.59
2019-01-11T10:57:34.860Z,996.58
2019-01-11T10:58:34.775Z,996.58
2019-01-11T10:59:34.691Z,996.62
2019-01-11T11:00:35.546Z,996.53
2019-01-11T11:01:34.519Z,996.46
2019-01-11T11:02:34.432Z,996.55
2019-01-11T11:03:34.346Z,996.50
2019-01-11T11:04:34.260Z,996.57
2019-01-11T11:05:34.175Z,996.57
2019-01-11T11:06:34.189Z,996.50
2019-01-11T11:07:34.003Z,996.50
2019-01-11T11:08:33.918Z,996.49
2019-01-11T11:09:33.831Z,996.45
2019-01-11T11:10:33.746Z,996.50
2019-01-11T11:11:33.660Z,996.45
2019-01-11T11:12:33.576Z,996.39
2019-01-11T11:13:33.488Z,996.33
2019-01-11T11:14:33.403Z,996.36
2019-01-11T11:15:33.317Z,996.31
2019-01-11T11:16:33.233Z,996.32
2019-01-11T11:17:33.145Z,996.32
2019-01-11T11:18:33.059Z,996.34
2019-01-11T11:19:32.974Z,996.32
2019-01-11T11:20:32.890Z,996.30
2019-01-11T11:21:34.748Z,996.31
2019-01-11T11:22:32.818Z,996.41
2019-01-11T11:23:32.631Z,996.35
2019-01-11T11:24:32.548Z,996.36
2019-01-11T11:25:32.460Z,996.35
2019-01-11T11:26:32.374Z,996.33
2019-01-11T11:27:32.288Z,996.40
2019-01-11T11:28:32.203Z,996.40
2019-01-11T11:29:32.117Z,996.32
2019-01-11T11:30:32.033Z,996.40
2019-01-11T11:31:31.944Z,996.44
2019-01-11T11:32:31.860Z,996.45
2019-01-11T11:33:31.775Z,996.44
2019-01-11T11:34:31.687Z,996.37
2019-01-11T11:35:31.603Z,996.39
2019-01-11T11:36:31.515Z,996.33
2019-01-11T11:37:31.429Z,996.33
2019-01-11T11:38:31.343Z,996.31
2019-01-11T11:39:31.259Z,996.31
2019-01-11T11:40:31.175Z,996.30
2019-01-11T11:41:31.085Z,996.24
2019-01-11T11:42:31.002Z,996.23
2019-01-11T11:43:30.916Z,996.25
2019-01-11T11:44:30.830Z,996.21
2019-01-11T11:45:30.743Z,996.23
2019-01-11T11:46:30.658Z,996.19
2019-01-11T11:47:30.572Z,996.25
2019-01-11T11:48:30.486Z,996.16
2019-01-11T11:49:30.399Z,996.13
2019-01-11T11:50:30.313Z,996.23
2019-01-11T11:51:30.230Z,996.20
2019-01-11T11:52:30.142Z,996.19
2019-01-11T11:53:30.058Z,996.22
2019-01-11T11:54:29.971Z,996.21
2019-01-11T11:55:29.886Z,996.16
2019-01-11T11:56:29.799Z,996.16
2019-01-11T11:57:29.713Z,996.12
2019-01-11T11:58:29.627Z,996.16
2019-01-11T11:59:29.542Z,996.13
2019-01-11T12:00:29.455Z,996.10
2019-01-11T12:01:29.377Z,996.13
2019-01-11T12:02:29.283Z,996.10
2019-01-11T12:03:29.197Z,996.07
2019-01-11T12:04:29.111Z,996.04
2019-01-11T12:05:29.025Z,996.10
2019-01-11T12:06:28.938Z,996.01
2019-01-11T12:07:28.853Z,996.07
2019-01-11T12:08:28.768Z,995.99
2019-01-11T12:09:28.680Z,996.03
2019-01-11T12:10:28.596Z,996.01
2019-01-11T12:11:28.509Z,996.01
2019-01-11T12:12:28.424Z,996.01
2019-01-11T12:13:28.336Z,995.98
2019-01-11T12:14:28.250Z,995.89
2019-01-11T12:15:28.168Z,995.95
2019-01-11T12:16:28.080Z,995.85
2019-01-11T12:17:27.992Z,995.88
2019-01-11T12:18:27.905Z,995.86
2019-01-11T12:19:27.821Z,995.87
2019-01-11T12:20:27.735Z,995.86
2019-01-11T12:21:27.649Z,995.85
2019-01-11T12:22:27.563Z,995.78
2019-01-11T12:23:27.478Z,995.85
2019-01-11T12:24:27.395Z,995.81
2019-01-11T12:25:27.305Z,995.72
2019-01-11T12:26:27.220Z,995.70
2019-01-11T12:27:27.133Z,995.75